Cripple Creek, Virginia
Current Conditions -  °F | °C
As of 6:55 PM on Saturday 25 Oct 2014 (Local Time) from KMKJ Reporting Station
Overcast Overcast  
Wind Chill: 60°   Ceiling: 3300
Heat Index: 60°   Visibility: 10mi
Dew Point: 47°   Wind: 12mph
Humidity: 62%   Direction: 240°WSW
Pressure: 30.01"   Gusts: NA
Location:  36.82°N, 81.1°W
Report Text: KMKJ 252255Z AUTO 24010KT 10SM OVC033 16/09 A3001 RMK AO2 T01580086
Loading
Personal Weather Stations






























Interactive Weather Map
Tropical Storm Tracking
New forecast layout! Learn more

10-Day Weather Forecast

Advertisements
Track Severe Weather on mobile